sensor_id;sensor_type;location;lat;lon;timestamp;P1;durP1;ratioP1;P2;durP2;ratioP2
22916;SDS011;11624;53.250;7.456;2023-04-06T00:00:01;21.60;;;9.70;;
22916;SDS011;11624;53.250;7.456;2023-04-06T00:02:34;19.97;;;9.30;;
22916;SDS011;11624;53.250;7.456;2023-04-06T00:05:04;21.50;;;9.77;;
22916;SDS011;11624;53.250;7.456;2023-04-06T00:07:33;20.33;;;10.30;;
22916;SDS011;11624;53.250;7.456;2023-04-06T00:10:02;21.23;;;9.70;;
22916;SDS011;11624;53.250;7.456;2023-04-06T00:12:31;20.70;;;10.27;;
22916;SDS011;11624;53.250;7.456;2023-04-06T00:14:59;21.43;;;10.10;;
22916;SDS011;11624;53.250;7.456;2023-04-06T00:17:28;20.43;;;10.30;;
22916;SDS011;11624;53.250;7.456;2023-04-06T00:19:56;21.13;;;10.20;;
22916;SDS011;11624;53.250;7.456;2023-04-06T00:22:25;20.53;;;9.93;;
22916;SDS011;11624;53.250;7.456;2023-04-06T00:24:53;20.13;;;9.80;;
22916;SDS011;11624;53.250;7.456;2023-04-06T00:27:22;22.80;;;10.13;;
22916;SDS011;11624;53.250;7.456;2023-04-06T00:29:50;23.80;;;10.70;;
22916;SDS011;11624;53.250;7.456;2023-04-06T00:32:18;22.10;;;10.63;;
22916;SDS011;11624;53.250;7.456;2023-04-06T00:34:46;24.37;;;11.47;;
22916;SDS011;11624;53.250;7.456;2023-04-06T00:37:14;21.87;;;11.00;;
22916;SDS011;11624;53.250;7.456;2023-04-06T00:39:44;22.33;;;11.00;;
22916;SDS011;11624;53.250;7.456;2023-04-06T00:42:12;22.50;;;11.00;;
22916;SDS011;11624;53.250;7.456;2023-04-06T00:44:41;21.53;;;10.97;;
22916;SDS011;11624;53.250;7.456;2023-04-06T00:47:09;24.93;;;11.80;;
22916;SDS011;11624;53.250;7.456;2023-04-06T00:49:37;23.10;;;11.70;;
22916;SDS011;11624;53.250;7.456;2023-04-06T00:52:06;24.17;;;10.93;;
22916;SDS011;11624;53.250;7.456;2023-04-06T00:54:36;22.03;;;11.40;;
22916;SDS011;11624;53.250;7.456;2023-04-06T00:57:06;23.57;;;11.43;;
22916;SDS011;11624;53.250;7.456;2023-04-06T00:59:34;23.67;;;11.93;;
22916;SDS011;11624;53.250;7.456;2023-04-06T01:02:05;23.83;;;12.17;;
22916;SDS011;11624;53.250;7.456;2023-04-06T01:04:41;22.23;;;10.70;;
22916;SDS011;11624;53.250;7.456;2023-04-06T01:07:18;23.83;;;10.80;;
22916;SDS011;11624;53.250;7.456;2023-04-06T01:10:00;22.70;;;11.63;;
22916;SDS011;11624;53.250;7.456;2023-04-06T01:12:32;26.17;;;12.33;;
22916;SDS011;11624;53.250;7.456;2023-04-06T01:15:04;27.40;;;12.60;;
22916;SDS011;11624;53.250;7.456;2023-04-06T01:17:36;25.23;;;12.53;;
22916;SDS011;11624;53.250;7.456;2023-04-06T01:20:10;25.97;;;12.00;;
22916;SDS011;11624;53.250;7.456;2023-04-06T01:22:40;24.40;;;12.77;;
22916;SDS011;11624;53.250;7.456;2023-04-06T01:25:10;22.83;;;11.60;;
22916;SDS011;11624;53.250;7.456;2023-04-06T01:27:58;23.40;;;12.27;;
22916;SDS011;11624;53.250;7.456;2023-04-06T01:30:43;23.00;;;11.83;;
22916;SDS011;11624;53.250;7.456;2023-04-06T01:33:23;27.23;;;12.80;;
22916;SDS011;11624;53.250;7.456;2023-04-06T01:35:58;22.03;;;12.10;;
22916;SDS011;11624;53.250;7.456;2023-04-06T01:38:29;27.63;;;12.83;;
22916;SDS011;11624;53.250;7.456;2023-04-06T01:40:57;25.13;;;13.13;;
22916;SDS011;11624;53.250;7.456;2023-04-06T01:43:30;23.73;;;12.23;;
22916;SDS011;11624;53.250;7.456;2023-04-06T01:46:04;25.90;;;12.67;;
22916;SDS011;11624;53.250;7.456;2023-04-06T01:48:35;25.80;;;12.80;;
22916;SDS011;11624;53.250;7.456;2023-04-06T01:51:24;23.37;;;12.37;;
22916;SDS011;11624;53.250;7.456;2023-04-06T01:54:00;24.63;;;13.57;;
22916;SDS011;11624;53.250;7.456;2023-04-06T01:56:38;24.43;;;12.33;;
22916;SDS011;11624;53.250;7.456;2023-04-06T01:59:26;28.50;;;13.43;;
22916;SDS011;11624;53.250;7.456;2023-04-06T02:01:56;27.90;;;13.17;;
22916;SDS011;11624;53.250;7.456;2023-04-06T02:04:26;23.30;;;13.17;;
22916;SDS011;11624;53.250;7.456;2023-04-06T02:07:04;26.67;;;12.97;;
22916;SDS011;11624;53.250;7.456;2023-04-06T02:09:34;24.80;;;12.43;;
22916;SDS011;11624;53.250;7.456;2023-04-06T02:12:05;24.33;;;13.30;;
22916;SDS011;11624;53.250;7.456;2023-04-06T02:14:33;27.07;;;14.13;;
22916;SDS011;11624;53.250;7.456;2023-04-06T02:17:01;28.60;;;14.33;;
22916;SDS011;11624;53.250;7.456;2023-04-06T02:19:30;25.60;;;13.97;;
22916;SDS011;11624;53.250;7.456;2023-04-06T02:21:58;24.67;;;13.60;;
22916;SDS011;11624;53.250;7.456;2023-04-06T02:24:26;28.30;;;14.20;;
22916;SDS011;11624;53.250;7.456;2023-04-06T02:26:56;27.80;;;15.40;;
22916;SDS011;11624;53.250;7.456;2023-04-06T02:29:24;32.37;;;15.57;;
22916;SDS011;11624;53.250;7.456;2023-04-06T02:31:52;38.70;;;19.20;;
22916;SDS011;11624;53.250;7.456;2023-04-06T02:34:21;36.47;;;18.63;;
22916;SDS011;11624;53.250;7.456;2023-04-06T02:36:50;43.60;;;21.93;;
22916;SDS011;11624;53.250;7.456;2023-04-06T02:39:18;41.77;;;20.63;;
22916;SDS011;11624;53.250;7.456;2023-04-06T02:41:47;43.03;;;21.70;;
22916;SDS011;11624;53.250;7.456;2023-04-06T02:44:21;36.07;;;19.57;;
22916;SDS011;11624;53.250;7.456;2023-04-06T02:46:49;40.87;;;20.43;;
22916;SDS011;11624;53.250;7.456;2023-04-06T02:49:17;34.97;;;19.10;;
22916;SDS011;11624;53.250;7.456;2023-04-06T02:51:45;33.10;;;17.23;;
22916;SDS011;11624;53.250;7.456;2023-04-06T02:54:18;32.93;;;17.63;;
22916;SDS011;11624;53.250;7.456;2023-04-06T02:56:46;33.07;;;16.43;;
22916;SDS011;11624;53.250;7.456;2023-04-06T02:59:14;34.03;;;16.80;;
22916;SDS011;11624;53.250;7.456;2023-04-06T03:01:52;30.93;;;15.87;;
22916;SDS011;11624;53.250;7.456;2023-04-06T03:04:20;28.40;;;16.13;;
22916;SDS011;11624;53.250;7.456;2023-04-06T03:06:53;32.33;;;16.80;;
22916;SDS011;11624;53.250;7.456;2023-04-06T03:09:33;31.23;;;16.70;;
22916;SDS011;11624;53.250;7.456;2023-04-06T03:12:01;32.73;;;16.43;;
22916;SDS011;11624;53.250;7.456;2023-04-06T03:14:36;32.97;;;16.57;;
22916;SDS011;11624;53.250;7.456;2023-04-06T03:17:06;30.23;;;16.67;;
22916;SDS011;11624;53.250;7.456;2023-04-06T03:19:34;33.57;;;16.57;;
22916;SDS011;11624;53.250;7.456;2023-04-06T03:22:03;33.50;;;18.13;;
22916;SDS011;11624;53.250;7.456;2023-04-06T03:24:31;34.30;;;17.73;;
22916;SDS011;11624;53.250;7.456;2023-04-06T03:26:59;35.40;;;17.40;;
22916;SDS011;11624;53.250;7.456;2023-04-06T03:29:28;33.83;;;17.70;;
22916;SDS011;11624;53.250;7.456;2023-04-06T03:31:56;34.23;;;18.30;;
22916;SDS011;11624;53.250;7.456;2023-04-06T03:34:34;35.93;;;18.43;;
22916;SDS011;11624;53.250;7.456;2023-04-06T03:37:02;35.40;;;19.00;;
22916;SDS011;11624;53.250;7.456;2023-04-06T03:39:41;31.27;;;17.47;;
22916;SDS011;11624;53.250;7.456;2023-04-06T03:42:14;32.27;;;18.10;;
22916;SDS011;11624;53.250;7.456;2023-04-06T03:44:51;31.83;;;18.10;;
22916;SDS011;11624;53.250;7.456;2023-04-06T03:47:19;34.80;;;18.37;;
22916;SDS011;11624;53.250;7.456;2023-04-06T03:49:49;34.27;;;18.37;;
22916;SDS011;11624;53.250;7.456;2023-04-06T03:52:17;33.97;;;18.50;;
22916;SDS011;11624;53.250;7.456;2023-04-06T03:54:45;34.97;;;18.53;;
22916;SDS011;11624;53.250;7.456;2023-04-06T03:57:13;34.00;;;17.77;;
22916;SDS011;11624;53.250;7.456;2023-04-06T03:59:41;33.90;;;18.93;;
22916;SDS011;11624;53.250;7.456;2023-04-06T04:02:09;35.53;;;19.00;;
22916;SDS011;11624;53.250;7.456;2023-04-06T04:04:38;34.53;;;18.70;;
22916;SDS011;11624;53.250;7.456;2023-04-06T04:07:08;33.57;;;18.00;;
22916;SDS011;11624;53.250;7.456;2023-04-06T04:09:36;32.70;;;17.50;;
22916;SDS011;11624;53.250;7.456;2023-04-06T04:12:04;34.00;;;18.83;;
22916;SDS011;11624;53.250;7.456;2023-04-06T04:14:33;33.50;;;18.10;;
22916;SDS011;11624;53.250;7.456;2023-04-06T04:17:01;31.60;;;18.67;;
22916;SDS011;11624;53.250;7.456;2023-04-06T04:19:30;35.27;;;18.57;;
22916;SDS011;11624;53.250;7.456;2023-04-06T04:21:58;32.13;;;17.43;;
22916;SDS011;11624;53.250;7.456;2023-04-06T04:24:33;31.03;;;16.17;;
22916;SDS011;11624;53.250;7.456;2023-04-06T04:27:01;31.20;;;17.70;;
22916;SDS011;11624;53.250;7.456;2023-04-06T04:29:31;33.17;;;18.37;;
22916;SDS011;11624;53.250;7.456;2023-04-06T04:32:04;30.93;;;17.63;;
22916;SDS011;11624;53.250;7.456;2023-04-06T04:34:32;32.37;;;18.23;;
22916;SDS011;11624;53.250;7.456;2023-04-06T04:37:03;33.53;;;18.10;;
22916;SDS011;11624;53.250;7.456;2023-04-06T04:39:44;32.63;;;17.70;;
22916;SDS011;11624;53.250;7.456;2023-04-06T04:42:12;34.83;;;19.47;;
22916;SDS011;11624;53.250;7.456;2023-04-06T04:44:46;38.83;;;19.57;;
22916;SDS011;11624;53.250;7.456;2023-04-06T04:47:20;45.23;;;21.80;;
22916;SDS011;11624;53.250;7.456;2023-04-06T04:49:48;44.60;;;22.37;;
22916;SDS011;11624;53.250;7.456;2023-04-06T04:52:21;38.03;;;19.70;;
22916;SDS011;11624;53.250;7.456;2023-04-06T04:55:00;31.00;;;18.07;;
22916;SDS011;11624;53.250;7.456;2023-04-06T04:57:28;32.17;;;18.07;;
22916;SDS011;11624;53.250;7.456;2023-04-06T04:59:57;32.57;;;17.03;;
22916;SDS011;11624;53.250;7.456;2023-04-06T05:02:25;30.13;;;17.03;;
22916;SDS011;11624;53.250;7.456;2023-04-06T05:05:07;32.23;;;17.67;;
22916;SDS011;11624;53.250;7.456;2023-04-06T05:07:37;30.57;;;16.77;;
22916;SDS011;11624;53.250;7.456;2023-04-06T05:10:11;32.77;;;17.20;;
22916;SDS011;11624;53.250;7.456;2023-04-06T05:12:49;30.63;;;16.40;;
22916;SDS011;11624;53.250;7.456;2023-04-06T05:15:17;35.13;;;17.97;;
22916;SDS011;11624;53.250;7.456;2023-04-06T05:17:48;30.47;;;16.93;;
22916;SDS011;11624;53.250;7.456;2023-04-06T05:20:21;30.67;;;17.07;;
22916;SDS011;11624;53.250;7.456;2023-04-06T05:22:50;30.30;;;17.73;;
22916;SDS011;11624;53.250;7.456;2023-04-06T05:25:20;31.97;;;17.13;;
22916;SDS011;11624;53.250;7.456;2023-04-06T05:27:51;31.77;;;17.13;;
22916;SDS011;11624;53.250;7.456;2023-04-06T05:30:31;30.90;;;16.90;;
22916;SDS011;11624;53.250;7.456;2023-04-06T05:32:59;31.93;;;17.57;;
22916;SDS011;11624;53.250;7.456;2023-04-06T05:35:36;33.43;;;17.40;;
22916;SDS011;11624;53.250;7.456;2023-04-06T05:38:09;31.90;;;17.53;;
22916;SDS011;11624;53.250;7.456;2023-04-06T05:40:38;30.77;;;17.17;;
22916;SDS011;11624;53.250;7.456;2023-04-06T05:43:11;31.97;;;17.30;;
22916;SDS011;11624;53.250;7.456;2023-04-06T05:45:43;30.57;;;17.17;;
22916;SDS011;11624;53.250;7.456;2023-04-06T05:48:12;31.13;;;16.43;;
22916;SDS011;11624;53.250;7.456;2023-04-06T05:50:40;29.40;;;16.50;;
22916;SDS011;11624;53.250;7.456;2023-04-06T05:53:11;27.37;;;16.00;;
22916;SDS011;11624;53.250;7.456;2023-04-06T05:55:45;29.60;;;16.40;;
22916;SDS011;11624;53.250;7.456;2023-04-06T05:58:17;29.50;;;15.53;;
22916;SDS011;11624;53.250;7.456;2023-04-06T06:00:46;28.03;;;15.57;;
22916;SDS011;11624;53.250;7.456;2023-04-06T06:03:16;28.70;;;15.90;;
22916;SDS011;11624;53.250;7.456;2023-04-06T06:05:50;28.40;;;15.63;;
22916;SDS011;11624;53.250;7.456;2023-04-06T06:08:25;28.93;;;14.73;;
22916;SDS011;11624;53.250;7.456;2023-04-06T06:10:55;26.37;;;14.53;;
22916;SDS011;11624;53.250;7.456;2023-04-06T06:13:24;24.70;;;13.67;;
22916;SDS011;11624;53.250;7.456;2023-04-06T06:15:53;27.63;;;14.00;;
22916;SDS011;11624;53.250;7.456;2023-04-06T06:18:22;21.80;;;12.47;;
22916;SDS011;11624;53.250;7.456;2023-04-06T06:20:52;25.17;;;13.20;;
22916;SDS011;11624;53.250;7.456;2023-04-06T06:23:21;25.33;;;12.47;;
22916;SDS011;11624;53.250;7.456;2023-04-06T06:25:49;26.23;;;12.57;;
22916;SDS011;11624;53.250;7.456;2023-04-06T06:28:19;23.13;;;12.57;;
22916;SDS011;11624;53.250;7.456;2023-04-06T06:30:47;23.63;;;12.67;;
22916;SDS011;11624;53.250;7.456;2023-04-06T06:33:20;25.50;;;12.17;;
22916;SDS011;11624;53.250;7.456;2023-04-06T06:35:51;22.33;;;11.93;;
22916;SDS011;11624;53.250;7.456;2023-04-06T06:38:19;22.37;;;11.93;;
22916;SDS011;11624;53.250;7.456;2023-04-06T06:40:50;21.73;;;11.40;;
22916;SDS011;11624;53.250;7.456;2023-04-06T06:43:20;23.13;;;11.93;;
22916;SDS011;11624;53.250;7.456;2023-04-06T06:45:54;22.87;;;11.67;;
22916;SDS011;11624;53.250;7.456;2023-04-06T06:48:22;20.83;;;11.47;;
22916;SDS011;11624;53.250;7.456;2023-04-06T06:50:52;22.53;;;11.40;;
22916;SDS011;11624;53.250;7.456;2023-04-06T06:53:20;20.93;;;10.87;;
22916;SDS011;11624;53.250;7.456;2023-04-06T06:55:48;22.77;;;10.80;;
22916;SDS011;11624;53.250;7.456;2023-04-06T06:58:17;20.70;;;10.73;;
22916;SDS011;11624;53.250;7.456;2023-04-06T07:00:48;21.67;;;10.53;;
22916;SDS011;11624;53.250;7.456;2023-04-06T07:03:16;21.87;;;10.80;;
22916;SDS011;11624;53.250;7.456;2023-04-06T07:05:47;20.10;;;10.70;;
22916;SDS011;11624;53.250;7.456;2023-04-06T07:08:21;19.70;;;10.53;;
22916;SDS011;11624;53.250;7.456;2023-04-06T07:10:50;18.40;;;9.90;;
22916;SDS011;11624;53.250;7.456;2023-04-06T07:13:19;19.07;;;10.03;;
22916;SDS011;11624;53.250;7.456;2023-04-06T07:15:53;22.70;;;10.90;;
22916;SDS011;11624;53.250;7.456;2023-04-06T07:18:21;20.90;;;10.47;;
22916;SDS011;11624;53.250;7.456;2023-04-06T07:20:50;19.70;;;10.00;;
22916;SDS011;11624;53.250;7.456;2023-04-06T07:23:18;19.70;;;9.50;;
22916;SDS011;11624;53.250;7.456;2023-04-06T07:25:46;18.67;;;9.17;;
22916;SDS011;11624;53.250;7.456;2023-04-06T07:28:17;18.77;;;8.83;;
22916;SDS011;11624;53.250;7.456;2023-04-06T07:30:45;18.73;;;9.73;;
22916;SDS011;11624;53.250;7.456;2023-04-06T07:33:15;16.57;;;8.83;;
22916;SDS011;11624;53.250;7.456;2023-04-06T07:35:44;18.73;;;9.63;;
22916;SDS011;11624;53.250;7.456;2023-04-06T07:38:13;17.97;;;9.43;;
22916;SDS011;11624;53.250;7.456;2023-04-06T07:40:42;17.30;;;9.27;;
22916;SDS011;11624;53.250;7.456;2023-04-06T07:43:10;17.47;;;8.67;;
22916;SDS011;11624;53.250;7.456;2023-04-06T07:45:38;17.17;;;9.00;;
22916;SDS011;11624;53.250;7.456;2023-04-06T07:48:07;17.40;;;8.90;;
22916;SDS011;11624;53.250;7.456;2023-04-06T07:50:37;19.33;;;9.30;;
22916;SDS011;11624;53.250;7.456;2023-04-06T07:53:05;17.27;;;8.63;;
22916;SDS011;11624;53.250;7.456;2023-04-06T07:55:34;18.20;;;8.77;;
22916;SDS011;11624;53.250;7.456;2023-04-06T07:58:02;23.37;;;8.40;;
22916;SDS011;11624;53.250;7.456;2023-04-06T08:00:30;21.40;;;8.97;;
22916;SDS011;11624;53.250;7.456;2023-04-06T08:02:58;18.20;;;8.97;;
22916;SDS011;11624;53.250;7.456;2023-04-06T08:05:27;17.03;;;8.60;;
22916;SDS011;11624;53.250;7.456;2023-04-06T08:07:56;15.57;;;7.90;;
22916;SDS011;11624;53.250;7.456;2023-04-06T08:10:25;19.97;;;9.30;;
22916;SDS011;11624;53.250;7.456;2023-04-06T08:12:53;19.98;;;8.57;;
22916;SDS011;11624;53.250;7.456;2023-04-06T08:15:21;21.55;;;8.55;;
22916;SDS011;11624;53.250;7.456;2023-04-06T08:17:49;17.90;;;8.43;;
22916;SDS011;11624;53.250;7.456;2023-04-06T08:20:17;18.02;;;8.25;;
22916;SDS011;11624;53.250;7.456;2023-04-06T08:22:45;19.48;;;8.95;;
22916;SDS011;11624;53.250;7.456;2023-04-06T08:25:16;21.33;;;8.90;;
22916;SDS011;11624;53.250;7.456;2023-04-06T08:27:45;16.10;;;8.02;;
22916;SDS011;11624;53.250;7.456;2023-04-06T08:30:13;15.95;;;7.95;;
22916;SDS011;11624;53.250;7.456;2023-04-06T08:32:42;18.10;;;8.05;;
22916;SDS011;11624;53.250;7.456;2023-04-06T08:35:10;16.58;;;8.02;;
22916;SDS011;11624;53.250;7.456;2023-04-06T08:37:39;17.67;;;8.35;;
22916;SDS011;11624;53.250;7.456;2023-04-06T08:40:07;16.27;;;8.50;;
22916;SDS011;11624;53.250;7.456;2023-04-06T08:42:39;17.98;;;8.25;;
22916;SDS011;11624;53.250;7.456;2023-04-06T08:45:11;17.23;;;8.07;;
22916;SDS011;11624;53.250;7.456;2023-04-06T08:47:42;18.17;;;7.75;;
22916;SDS011;11624;53.250;7.456;2023-04-06T08:50:10;15.23;;;7.20;;
22916;SDS011;11624;53.250;7.456;2023-04-06T08:52:38;17.40;;;7.82;;
22916;SDS011;11624;53.250;7.456;2023-04-06T08:55:08;16.08;;;7.88;;
22916;SDS011;11624;53.250;7.456;2023-04-06T08:57:37;16.95;;;7.55;;
22916;SDS011;11624;53.250;7.456;2023-04-06T09:00:07;16.10;;;7.75;;
22916;SDS011;11624;53.250;7.456;2023-04-06T09:02:38;18.27;;;8.50;;
22916;SDS011;11624;53.250;7.456;2023-04-06T09:05:08;15.68;;;7.80;;
22916;SDS011;11624;53.250;7.456;2023-04-06T09:07:37;15.65;;;8.05;;
22916;SDS011;11624;53.250;7.456;2023-04-06T09:10:05;16.48;;;7.57;;
22916;SDS011;11624;53.250;7.456;2023-04-06T09:12:34;18.73;;;8.00;;
22916;SDS011;11624;53.250;7.456;2023-04-06T09:15:05;14.20;;;7.53;;
22916;SDS011;11624;53.250;7.456;2023-04-06T09:17:34;18.15;;;8.18;;
22916;SDS011;11624;53.250;7.456;2023-04-06T09:20:03;16.55;;;7.88;;
22916;SDS011;11624;53.250;7.456;2023-04-06T09:22:35;15.57;;;7.20;;
22916;SDS011;11624;53.250;7.456;2023-04-06T09:25:04;17.13;;;7.97;;
22916;SDS011;11624;53.250;7.456;2023-04-06T09:27:34;16.25;;;7.68;;
22916;SDS011;11624;53.250;7.456;2023-04-06T09:30:05;17.50;;;8.65;;
22916;SDS011;11624;53.250;7.456;2023-04-06T09:32:43;15.77;;;8.15;;
22916;SDS011;11624;53.250;7.456;2023-04-06T09:35:13;16.27;;;7.88;;
22916;SDS011;11624;53.250;7.456;2023-04-06T09:37:42;18.55;;;8.02;;
22916;SDS011;11624;53.250;7.456;2023-04-06T09:40:11;15.57;;;8.07;;
22916;SDS011;11624;53.250;7.456;2023-04-06T09:42:40;17.13;;;8.10;;
22916;SDS011;11624;53.250;7.456;2023-04-06T09:45:10;16.20;;;8.27;;
22916;SDS011;11624;53.250;7.456;2023-04-06T09:47:39;15.00;;;8.13;;
22916;SDS011;11624;53.250;7.456;2023-04-06T09:50:08;16.40;;;8.40;;
22916;SDS011;11624;53.250;7.456;2023-04-06T09:52:40;16.75;;;8.57;;
22916;SDS011;11624;53.250;7.456;2023-04-06T09:55:09;16.10;;;8.27;;
22916;SDS011;11624;53.250;7.456;2023-04-06T09:57:40;17.67;;;8.50;;
22916;SDS011;11624;53.250;7.456;2023-04-06T10:00:15;17.98;;;9.32;;
22916;SDS011;11624;53.250;7.456;2023-04-06T10:02:49;15.82;;;9.00;;
22916;SDS011;11624;53.250;7.456;2023-04-06T10:05:27;17.55;;;9.32;;
22916;SDS011;11624;53.250;7.456;2023-04-06T10:08:02;16.67;;;9.30;;
22916;SDS011;11624;53.250;7.456;2023-04-06T10:10:33;17.85;;;9.38;;
22916;SDS011;11624;53.250;7.456;2023-04-06T10:13:03;17.02;;;9.15;;
22916;SDS011;11624;53.250;7.456;2023-04-06T10:15:33;15.85;;;8.65;;
22916;SDS011;11624;53.250;7.456;2023-04-06T10:18:01;16.83;;;8.73;;
22916;SDS011;11624;53.250;7.456;2023-04-06T10:20:33;16.77;;;8.63;;
22916;SDS011;11624;53.250;7.456;2023-04-06T10:23:08;19.63;;;8.57;;
22916;SDS011;11624;53.250;7.456;2023-04-06T10:25:51;17.70;;;9.05;;
22916;SDS011;11624;53.250;7.456;2023-04-06T10:28:20;18.55;;;8.55;;
22916;SDS011;11624;53.250;7.456;2023-04-06T10:30:49;17.63;;;9.02;;
22916;SDS011;11624;53.250;7.456;2023-04-06T10:33:25;16.80;;;9.15;;
22916;SDS011;11624;53.250;7.456;2023-04-06T10:35:54;18.23;;;9.55;;
22916;SDS011;11624;53.250;7.456;2023-04-06T10:38:32;19.25;;;9.85;;
22916;SDS011;11624;53.250;7.456;2023-04-06T10:41:07;19.15;;;10.35;;
22916;SDS011;11624;53.250;7.456;2023-04-06T10:43:37;19.70;;;10.70;;
22916;SDS011;11624;53.250;7.456;2023-04-06T10:46:08;19.65;;;10.27;;
22916;SDS011;11624;53.250;7.456;2023-04-06T10:48:37;18.75;;;10.65;;
22916;SDS011;11624;53.250;7.456;2023-04-06T10:51:08;20.58;;;11.60;;
22916;SDS011;11624;53.250;7.456;2023-04-06T10:53:39;19.77;;;10.85;;
22916;SDS011;11624;53.250;7.456;2023-04-06T10:56:09;19.50;;;9.77;;
22916;SDS011;11624;53.250;7.456;2023-04-06T10:58:43;21.13;;;11.63;;
22916;SDS011;11624;53.250;7.456;2023-04-06T11:01:13;20.50;;;10.57;;
22916;SDS011;11624;53.250;7.456;2023-04-06T11:03:43;18.83;;;10.30;;
22916;SDS011;11624;53.250;7.456;2023-04-06T11:06:17;22.85;;;10.98;;
22916;SDS011;11624;53.250;7.456;2023-04-06T11:08:46;22.80;;;11.70;;
22916;SDS011;11624;53.250;7.456;2023-04-06T11:11:15;20.58;;;11.50;;
22916;SDS011;11624;53.250;7.456;2023-04-06T11:13:46;20.83;;;12.57;;
22916;SDS011;11624;53.250;7.456;2023-04-06T11:16:17;20.70;;;11.32;;
22916;SDS011;11624;53.250;7.456;2023-04-06T11:18:47;24.45;;;12.50;;
22916;SDS011;11624;53.250;7.456;2023-04-06T11:21:20;21.02;;;12.13;;
22916;SDS011;11624;53.250;7.456;2023-04-06T11:24:09;20.63;;;12.30;;
22916;SDS011;11624;53.250;7.456;2023-04-06T11:26:39;19.95;;;11.95;;
22916;SDS011;11624;53.250;7.456;2023-04-06T11:29:08;19.42;;;11.57;;
22916;SDS011;11624;53.250;7.456;2023-04-06T11:31:42;20.55;;;12.13;;
22916;SDS011;11624;53.250;7.456;2023-04-06T11:34:12;20.40;;;11.93;;
22916;SDS011;11624;53.250;7.456;2023-04-06T11:36:41;20.17;;;12.02;;
22916;SDS011;11624;53.250;7.456;2023-04-06T11:39:10;20.00;;;12.00;;
22916;SDS011;11624;53.250;7.456;2023-04-06T11:41:40;21.23;;;12.15;;
22916;SDS011;11624;53.250;7.456;2023-04-06T11:44:08;21.02;;;12.25;;
22916;SDS011;11624;53.250;7.456;2023-04-06T11:46:36;20.73;;;12.52;;
22916;SDS011;11624;53.250;7.456;2023-04-06T11:49:06;23.75;;;13.27;;
22916;SDS011;11624;53.250;7.456;2023-04-06T11:51:35;22.17;;;14.00;;
22916;SDS011;11624;53.250;7.456;2023-04-06T11:54:04;24.00;;;13.48;;
22916;SDS011;11624;53.250;7.456;2023-04-06T11:56:32;21.27;;;11.75;;
22916;SDS011;11624;53.250;7.456;2023-04-06T11:59:00;19.73;;;12.45;;
22916;SDS011;11624;53.250;7.456;2023-04-06T12:01:28;20.23;;;12.50;;
22916;SDS011;11624;53.250;7.456;2023-04-06T12:04:02;20.55;;;12.82;;
22916;SDS011;11624;53.250;7.456;2023-04-06T12:06:31;21.92;;;12.90;;
22916;SDS011;11624;53.250;7.456;2023-04-06T12:09:00;22.25;;;13.00;;
22916;SDS011;11624;53.250;7.456;2023-04-06T12:11:28;21.13;;;13.02;;
22916;SDS011;11624;53.250;7.456;2023-04-06T12:13:56;21.38;;;13.00;;
22916;SDS011;11624;53.250;7.456;2023-04-06T12:16:25;21.02;;;13.18;;
22916;SDS011;11624;53.250;7.456;2023-04-06T12:18:54;22.55;;;12.80;;
22916;SDS011;11624;53.250;7.456;2023-04-06T12:21:22;21.02;;;12.25;;
22916;SDS011;11624;53.250;7.456;2023-04-06T12:23:52;23.92;;;13.40;;
22916;SDS011;11624;53.250;7.456;2023-04-06T12:26:20;22.17;;;12.35;;
22916;SDS011;11624;53.250;7.456;2023-04-06T12:28:48;25.35;;;13.57;;
22916;SDS011;11624;53.250;7.456;2023-04-06T12:31:17;21.90;;;12.70;;
22916;SDS011;11624;53.250;7.456;2023-04-06T12:33:46;23.38;;;13.15;;
22916;SDS011;11624;53.250;7.456;2023-04-06T12:36:15;21.00;;;12.05;;
22916;SDS011;11624;53.250;7.456;2023-04-06T12:41:40;22.02;;;12.98;;
22916;SDS011;11624;53.250;7.456;2023-04-06T12:44:08;19.92;;;11.45;;
22916;SDS011;11624;53.250;7.456;2023-04-06T12:46:36;20.05;;;12.88;;
22916;SDS011;11624;53.250;7.456;2023-04-06T12:49:04;22.02;;;12.68;;
22916;SDS011;11624;53.250;7.456;2023-04-06T12:51:32;21.58;;;12.85;;
22916;SDS011;11624;53.250;7.456;2023-04-06T12:54:00;22.35;;;13.27;;
22916;SDS011;11624;53.250;7.456;2023-04-06T12:56:30;22.92;;;12.50;;
22916;SDS011;11624;53.250;7.456;2023-04-06T12:58:59;21.55;;;12.57;;
22916;SDS011;11624;53.250;7.456;2023-04-06T13:01:27;20.80;;;12.40;;
22916;SDS011;11624;53.250;7.456;2023-04-06T13:03:56;23.27;;;13.07;;
22916;SDS011;11624;53.250;7.456;2023-04-06T13:06:25;23.35;;;12.73;;
22916;SDS011;11624;53.250;7.456;2023-04-06T13:08:56;21.85;;;12.98;;
22916;SDS011;11624;53.250;7.456;2023-04-06T13:11:25;21.05;;;12.73;;
22916;SDS011;11624;53.250;7.456;2023-04-06T13:13:55;20.50;;;12.25;;
22916;SDS011;11624;53.250;7.456;2023-04-06T13:16:23;22.63;;;12.30;;
22916;SDS011;11624;53.250;7.456;2023-04-06T13:18:52;24.52;;;12.98;;
22916;SDS011;11624;53.250;7.456;2023-04-06T13:21:20;22.67;;;13.18;;
22916;SDS011;11624;53.250;7.456;2023-04-06T13:23:48;21.77;;;12.35;;
22916;SDS011;11624;53.250;7.456;2023-04-06T13:26:17;22.77;;;12.52;;
22916;SDS011;11624;53.250;7.456;2023-04-06T13:28:45;23.48;;;12.82;;
22916;SDS011;11624;53.250;7.456;2023-04-06T13:31:19;22.65;;;13.20;;
22916;SDS011;11624;53.250;7.456;2023-04-06T13:33:47;22.55;;;12.90;;
22916;SDS011;11624;53.250;7.456;2023-04-06T13:36:15;24.08;;;13.00;;
22916;SDS011;11624;53.250;7.456;2023-04-06T13:38:44;22.67;;;12.57;;
22916;SDS011;11624;53.250;7.456;2023-04-06T13:41:17;25.17;;;13.02;;
22916;SDS011;11624;53.250;7.456;2023-04-06T13:43:47;27.20;;;14.63;;
22916;SDS011;11624;53.250;7.456;2023-04-06T13:46:16;25.77;;;14.40;;
22916;SDS011;11624;53.250;7.456;2023-04-06T13:48:45;22.77;;;13.63;;
22916;SDS011;11624;53.250;7.456;2023-04-06T13:51:14;22.10;;;13.65;;
22916;SDS011;11624;53.250;7.456;2023-04-06T13:53:42;23.88;;;14.10;;
22916;SDS011;11624;53.250;7.456;2023-04-06T13:56:10;24.98;;;13.30;;
22916;SDS011;11624;53.250;7.456;2023-04-06T13:58:38;25.80;;;13.77;;
22916;SDS011;11624;53.250;7.456;2023-04-06T14:01:07;25.67;;;16.10;;
22916;SDS011;11624;53.250;7.456;2023-04-06T14:03:37;26.88;;;15.60;;
22916;SDS011;11624;53.250;7.456;2023-04-06T14:06:10;27.15;;;16.02;;
22916;SDS011;11624;53.250;7.456;2023-04-06T14:08:42;27.05;;;15.57;;
22916;SDS011;11624;53.250;7.456;2023-04-06T14:11:10;26.48;;;15.60;;
22916;SDS011;11624;53.250;7.456;2023-04-06T14:13:39;27.55;;;15.88;;
22916;SDS011;11624;53.250;7.456;2023-04-06T14:16:08;26.92;;;17.15;;
22916;SDS011;11624;53.250;7.456;2023-04-06T14:18:36;27.42;;;16.50;;
22916;SDS011;11624;53.250;7.456;2023-04-06T14:21:05;25.95;;;15.18;;
22916;SDS011;11624;53.250;7.456;2023-04-06T14:23:34;27.58;;;15.77;;
22916;SDS011;11624;53.250;7.456;2023-04-06T14:26:03;27.60;;;15.43;;
22916;SDS011;11624;53.250;7.456;2023-04-06T14:28:32;24.77;;;14.85;;
22916;SDS011;11624;53.250;7.456;2023-04-06T14:31:01;25.13;;;14.70;;
22916;SDS011;11624;53.250;7.456;2023-04-06T14:33:36;27.02;;;16.40;;
22916;SDS011;11624;53.250;7.456;2023-04-06T14:36:05;25.98;;;15.15;;
22916;SDS011;11624;53.250;7.456;2023-04-06T14:38:34;26.98;;;16.40;;
22916;SDS011;11624;53.250;7.456;2023-04-06T14:41:03;27.90;;;16.60;;
22916;SDS011;11624;53.250;7.456;2023-04-06T14:43:31;25.90;;;14.40;;
22916;SDS011;11624;53.250;7.456;2023-04-06T14:46:00;26.65;;;15.07;;